createdAt,value
2022-08-07T00:01:44.053Z,13.90
2022-08-07T00:04:18.195Z,13.90
2022-08-07T00:06:53.750Z,13.80
2022-08-07T00:09:29.135Z,13.80
2022-08-07T00:12:05.072Z,13.80
2022-08-07T00:14:34.244Z,13.80
2022-08-07T00:17:06.614Z,13.80
2022-08-07T00:20:00.259Z,13.80
2022-08-07T00:22:35.192Z,13.78
2022-08-07T00:25:16.397Z,13.80
2022-08-07T00:27:52.697Z,13.70
2022-08-07T00:30:27.207Z,13.70
2022-08-07T00:32:59.823Z,13.70
2022-08-07T00:35:30.511Z,13.74
2022-08-07T00:38:00.826Z,13.70
2022-08-07T00:40:36.472Z,13.60
2022-08-07T00:43:59.664Z,13.46
2022-08-07T00:46:02.295Z,13.30
2022-08-07T00:48:32.660Z,13.20
2022-08-07T00:51:03.103Z,13.20
2022-08-07T00:53:44.171Z,13.10
2022-08-07T00:56:20.006Z,13.10
2022-08-07T00:58:50.104Z,13.10
2022-08-07T01:01:20.734Z,13.16
2022-08-07T01:03:55.359Z,13.10
2022-08-07T01:06:29.560Z,13.00
2022-08-07T01:09:02.798Z,13.00
2022-08-07T01:12:08.980Z,13.00
2022-08-07T01:14:28.757Z,13.00
2022-08-07T01:17:00.638Z,12.90
2022-08-07T01:19:34.615Z,12.90
2022-08-07T01:22:09.541Z,12.82
2022-08-07T01:24:52.974Z,12.90
2022-08-07T01:27:21.865Z,12.84
2022-08-07T01:29:52.192Z,12.70
2022-08-07T01:32:22.998Z,12.60
2022-08-07T01:34:55.096Z,12.50
2022-08-07T01:37:24.978Z,12.50
2022-08-07T01:40:02.428Z,12.40
2022-08-07T01:42:39.936Z,12.30
2022-08-07T01:45:36.955Z,12.30
2022-08-07T01:48:18.623Z,12.30
2022-08-07T01:51:08.212Z,12.26
2022-08-07T01:54:11.818Z,12.40
2022-08-07T01:56:55.333Z,12.40
2022-08-07T01:59:30.980Z,12.34
2022-08-07T02:02:11.805Z,12.44
2022-08-07T02:05:48.048Z,12.50
2022-08-07T02:08:14.021Z,12.50
2022-08-07T02:10:44.924Z,12.40
2022-08-07T02:13:57.412Z,12.40
2022-08-07T02:16:28.822Z,12.40
2022-08-07T02:20:07.155Z,12.40
2022-08-07T02:21:58.784Z,12.40
2022-08-07T02:24:30.707Z,12.30
2022-08-07T02:27:03.663Z,12.20
2022-08-07T02:29:43.355Z,12.10
2022-08-07T02:32:23.245Z,12.10
2022-08-07T02:34:54.057Z,12.10
2022-08-07T02:37:33.949Z,12.00
2022-08-07T02:40:31.222Z,11.92
2022-08-07T02:42:59.729Z,11.90
2022-08-07T02:45:58.875Z,11.80
2022-08-07T02:48:21.562Z,11.80
2022-08-07T02:50:54.605Z,11.80
2022-08-07T02:53:34.024Z,11.80
2022-08-07T02:56:21.128Z,11.70
2022-08-07T02:58:54.152Z,11.70
2022-08-07T03:01:36.485Z,11.70
2022-08-07T03:04:14.002Z,11.70
2022-08-07T03:06:48.129Z,11.72
2022-08-07T03:09:43.569Z,11.70
2022-08-07T03:12:21.798Z,11.70
2022-08-07T03:14:56.693Z,11.70
2022-08-07T03:17:26.386Z,11.60
2022-08-07T03:19:57.697Z,11.60
2022-08-07T03:22:30.496Z,11.50
2022-08-07T03:25:02.285Z,11.50
2022-08-07T03:27:42.190Z,11.50
2022-08-07T03:30:31.184Z,11.40
2022-08-07T03:33:02.149Z,11.36
2022-08-07T03:35:43.674Z,11.30
2022-08-07T03:38:29.553Z,11.20
2022-08-07T03:41:03.458Z,11.20
2022-08-07T03:43:33.740Z,11.28
2022-08-07T03:46:10.624Z,11.30
2022-08-07T03:49:02.395Z,11.24
2022-08-07T03:51:47.092Z,11.30
2022-08-07T03:54:36.002Z,11.30
2022-08-07T03:57:10.146Z,11.20
2022-08-07T04:00:02.646Z,11.20
2022-08-07T04:02:33.223Z,11.30
2022-08-07T04:05:02.389Z,11.50
2022-08-07T04:07:35.967Z,11.60
2022-08-07T04:10:15.660Z,11.70
2022-08-07T04:12:51.235Z,11.70
2022-08-07T04:15:21.441Z,11.84
2022-08-07T04:18:56.363Z,12.00
2022-08-07T04:20:54.360Z,12.20
2022-08-07T04:23:26.032Z,12.32
2022-08-07T04:26:14.229Z,12.50
2022-08-07T04:28:46.518Z,12.70
2022-08-07T04:31:20.279Z,12.94
2022-08-07T04:34:16.662Z,13.20
2022-08-07T04:36:48.822Z,13.30
2022-08-07T04:39:25.532Z,13.40
2022-08-07T04:41:55.623Z,13.54
2022-08-07T04:44:26.870Z,13.80
2022-08-07T04:48:01.051Z,14.00
2022-08-07T04:50:54.010Z,14.30
2022-08-07T04:54:01.584Z,14.52
2022-08-07T04:58:12.383Z,14.80
2022-08-07T05:00:43.631Z,15.20
2022-08-07T05:04:06.889Z,15.48
2022-08-07T05:06:51.682Z,15.80
2022-08-07T05:09:46.747Z,16.10
2022-08-07T05:12:30.730Z,16.54
2022-08-07T05:15:23.109Z,16.92
2022-08-07T05:18:09.220Z,17.38
2022-08-07T05:20:49.248Z,17.78
2022-08-07T05:23:30.117Z,18.20
2022-08-07T05:26:11.579Z,18.50
2022-08-07T05:28:51.094Z,18.70
2022-08-07T05:31:34.952Z,19.02
2022-08-07T05:34:15.931Z,19.50
2022-08-07T05:36:52.752Z,19.84
2022-08-07T05:40:06.323Z,20.20
2022-08-07T05:42:33.613Z,20.32
2022-08-07T05:45:25.918Z,20.70
2022-08-07T05:48:02.373Z,21.00
2022-08-07T05:50:44.856Z,21.30
2022-08-07T05:54:13.828Z,21.90
2022-08-07T05:56:06.953Z,22.46
2022-08-07T05:58:42.222Z,22.90
2022-08-07T06:01:23.859Z,23.40
2022-08-07T06:04:01.224Z,23.80
2022-08-07T06:06:37.117Z,24.34
2022-08-07T06:09:09.397Z,24.78
2022-08-07T06:11:43.917Z,25.04
2022-08-07T06:14:21.261Z,25.64
2022-08-07T06:16:59.977Z,26.16
2022-08-07T06:19:57.562Z,26.60
2022-08-07T06:22:27.604Z,26.70
2022-08-07T06:25:10.260Z,26.80
2022-08-07T06:27:59.890Z,27.28
2022-08-07T06:30:35.326Z,27.82
2022-08-07T06:33:09.916Z,28.50
2022-08-07T06:36:06.714Z,28.90
2022-08-07T06:38:35.363Z,29.20
2022-08-07T06:41:12.955Z,29.70
2022-08-07T06:44:01.763Z,29.70
2022-08-07T06:46:36.151Z,29.78
2022-08-07T06:49:09.133Z,30.42
2022-08-07T06:51:49.721Z,30.98
2022-08-07T06:55:32.413Z,31.40
2022-08-07T06:57:14.625Z,31.80
2022-08-07T07:00:13.791Z,32.26
2022-08-07T07:02:54.075Z,32.78
2022-08-07T07:06:05.231Z,33.30
2022-08-07T07:08:18.425Z,33.62
2022-08-07T07:10:57.399Z,33.84
2022-08-07T07:13:43.511Z,34.20
2022-08-07T07:16:30.297Z,34.40
2022-08-07T07:19:54.838Z,34.40
2022-08-07T07:22:04.774Z,34.40
2022-08-07T07:24:56.981Z,34.60
2022-08-07T07:27:55.683Z,34.80
2022-08-07T07:30:38.548Z,35.20
2022-08-07T07:33:14.284Z,35.12
2022-08-07T07:36:04.463Z,34.60
2022-08-07T07:38:35.981Z,33.98
2022-08-07T07:41:10.268Z,33.80
2022-08-07T07:44:14.787Z,33.60
2022-08-07T07:46:54.195Z,33.80
2022-08-07T07:50:35.484Z,33.22
2022-08-07T07:52:19.213Z,33.06
2022-08-07T07:54:51.515Z,33.52
2022-08-07T07:57:50.331Z,33.60
2022-08-07T08:00:20.939Z,33.20
2022-08-07T08:03:16.860Z,32.92
2022-08-07T08:05:59.260Z,33.14
2022-08-07T08:08:36.863Z,33.40
2022-08-07T08:11:16.226Z,33.98
2022-08-07T08:14:01.643Z,34.08
2022-08-07T08:16:42.258Z,34.22
2022-08-07T08:20:19.086Z,34.70
2022-08-07T08:22:36.634Z,35.30
2022-08-07T08:25:49.302Z,35.90
2022-08-07T08:28:38.112Z,35.80
2022-08-07T08:31:15.766Z,36.10
2022-08-07T08:33:55.301Z,36.40
2022-08-07T08:36:32.349Z,36.30
2022-08-07T08:39:05.532Z,35.96
2022-08-07T08:41:58.325Z,35.14
2022-08-07T08:45:00.752Z,34.62
2022-08-07T08:47:55.046Z,35.00
2022-08-07T08:52:01.087Z,34.72
2022-08-07T08:55:01.219Z,33.80
2022-08-07T08:57:47.330Z,33.60
2022-08-07T09:00:17.491Z,33.72
2022-08-07T09:03:08.315Z,33.74
2022-08-07T09:06:31.523Z,33.68
2022-08-07T09:09:13.549Z,34.14
2022-08-07T09:12:53.159Z,34.00
2022-08-07T09:16:20.657Z,33.86
2022-08-07T09:18:59.021Z,33.70
2022-08-07T09:22:22.424Z,33.50
2022-08-07T09:25:17.499Z,32.80
2022-08-07T09:30:00.442Z,32.54
2022-08-07T09:31:17.264Z,32.30
2022-08-07T09:34:00.193Z,32.54
2022-08-07T09:37:02.256Z,32.22
2022-08-07T09:39:53.954Z,31.70
2022-08-07T09:43:09.363Z,31.84
2022-08-07T09:47:27.670Z,32.10
2022-08-07T09:50:00.573Z,31.80
2022-08-07T09:52:38.304Z,31.70
2022-08-07T09:55:29.417Z,32.00
2022-08-07T09:58:42.246Z,31.80
2022-08-07T10:01:53.501Z,31.60
2022-08-07T10:05:00.280Z,30.92
2022-08-07T10:07:53.384Z,30.50
2022-08-07T10:11:59.069Z,29.90
2022-08-07T10:14:12.351Z,29.80
2022-08-07T10:17:17.904Z,29.80
2022-08-07T10:20:31.793Z,29.30
2022-08-07T10:24:05.581Z,28.78
2022-08-07T10:26:58.223Z,29.10
2022-08-07T10:30:13.900Z,29.20
2022-08-07T10:34:05.090Z,29.00
2022-08-07T10:36:50.194Z,28.70
2022-08-07T10:40:06.243Z,28.14
2022-08-07T10:42:46.907Z,27.98
2022-08-07T10:45:43.985Z,28.10
2022-08-07T10:48:34.875Z,28.10
2022-08-07T10:51:39.064Z,28.42
2022-08-07T10:54:53.508Z,28.60
2022-08-07T10:57:56.112Z,28.70
2022-08-07T11:00:36.633Z,28.80
2022-08-07T11:03:37.585Z,29.00
2022-08-07T11:06:29.217Z,28.70
2022-08-07T11:09:11.730Z,28.40
2022-08-07T11:12:18.930Z,28.70
2022-08-07T11:15:17.510Z,28.52
2022-08-07T11:18:17.751Z,28.30
2022-08-07T11:21:26.560Z,28.40
2022-08-07T11:24:28.318Z,28.14
2022-08-07T11:27:13.738Z,27.82
2022-08-07T11:30:18.040Z,27.88
2022-08-07T11:33:19.577Z,27.92
2022-08-07T11:36:30.595Z,28.40
2022-08-07T11:40:00.138Z,27.90
2022-08-07T11:43:01.766Z,27.60
2022-08-07T11:46:17.742Z,27.38
2022-08-07T11:49:50.512Z,27.36
2022-08-07T11:52:56.372Z,27.58
2022-08-07T11:56:24.975Z,27.36
2022-08-07T12:00:08.074Z,27.16
2022-08-07T12:02:52.662Z,27.60
2022-08-07T12:06:01.706Z,28.02
2022-08-07T12:09:07.556Z,28.50
2022-08-07T12:12:09.748Z,28.60
2022-08-07T12:14:56.267Z,28.78
2022-08-07T12:18:11.411Z,29.10
2022-08-07T12:20:51.764Z,29.30
2022-08-07T12:24:05.561Z,29.40
2022-08-07T12:27:16.689Z,29.22
2022-08-07T12:30:02.784Z,29.12
2022-08-07T12:32:52.567Z,28.90
2022-08-07T12:35:26.868Z,28.50
2022-08-07T12:38:11.609Z,28.20
2022-08-07T12:40:51.134Z,28.00
2022-08-07T12:44:05.031Z,27.80
2022-08-07T12:47:11.302Z,27.40
2022-08-07T12:50:33.769Z,27.30
2022-08-07T12:53:18.235Z,27.20
2022-08-07T12:56:18.946Z,27.36
2022-08-07T12:58:56.968Z,27.44
2022-08-07T13:01:27.924Z,27.30
2022-08-07T13:04:49.314Z,27.38
2022-08-07T13:08:14.231Z,27.70
2022-08-07T13:11:07.030Z,27.96
2022-08-07T13:14:22.983Z,28.28
2022-08-07T13:17:52.622Z,28.50
2022-08-07T13:20:44.596Z,28.60
2022-08-07T13:24:00.947Z,28.60
2022-08-07T13:26:44.576Z,28.68
2022-08-07T13:29:36.798Z,28.60
2022-08-07T13:32:32.444Z,28.60
2022-08-07T13:35:24.420Z,28.60
2022-08-07T13:38:31.638Z,28.42
2022-08-07T13:41:49.994Z,28.22
2022-08-07T13:44:34.521Z,28.20
2022-08-07T13:47:10.388Z,28.10
2022-08-07T13:50:32.844Z,28.16
2022-08-07T13:52:46.927Z,28.00
2022-08-07T13:55:26.745Z,27.90
2022-08-07T13:58:34.344Z,27.98
2022-08-07T14:01:21.974Z,28.00
2022-08-07T14:04:05.653Z,27.80
2022-08-07T14:06:43.770Z,27.70
2022-08-07T14:10:02.012Z,27.62
2022-08-07T14:12:41.614Z,27.10
2022-08-07T14:15:37.743Z,26.90
2022-08-07T14:18:30.184Z,26.60
2022-08-07T14:21:20.838Z,26.38
2022-08-07T14:24:05.552Z,26.30
2022-08-07T14:26:59.430Z,26.40
2022-08-07T14:30:05.310Z,26.50
2022-08-07T14:32:29.263Z,26.40
2022-08-07T14:35:04.067Z,26.50
2022-08-07T14:37:38.768Z,26.50
2022-08-07T14:40:26.676Z,26.40
2022-08-07T14:46:02.024Z,26.60
2022-08-07T14:48:40.644Z,26.46
2022-08-07T14:51:19.370Z,26.30
2022-08-07T14:56:43.834Z,26.20
2022-08-07T15:02:31.678Z,26.30
2022-08-07T15:07:58.237Z,26.20
2022-08-07T15:10:30.089Z,25.90
2022-08-07T15:13:25.282Z,25.70
2022-08-07T15:16:03.012Z,25.58
2022-08-07T15:18:49.021Z,25.44
2022-08-07T15:21:58.820Z,25.30
2022-08-07T15:25:16.313Z,25.20
2022-08-07T15:27:23.362Z,25.10
2022-08-07T15:36:01.970Z,24.80
2022-08-07T15:38:58.663Z,24.70
2022-08-07T15:42:43.460Z,24.70
2022-08-07T15:44:23.713Z,24.70
2022-08-07T15:47:09.093Z,24.68
2022-08-07T15:50:05.039Z,24.50
2022-08-07T15:52:39.107Z,24.50
2022-08-07T15:55:13.114Z,24.50
2022-08-07T15:57:49.417Z,24.50
2022-08-07T16:00:33.807Z,24.56
2022-08-07T16:03:47.195Z,24.60
2022-08-07T16:06:13.231Z,24.60
2022-08-07T16:08:45.673Z,24.60
2022-08-07T16:11:56.806Z,24.60
2022-08-07T16:15:07.848Z,24.60
2022-08-07T16:18:06.262Z,24.60
2022-08-07T16:20:55.295Z,24.60
2022-08-07T16:24:03.143Z,24.70
2022-08-07T16:27:26.815Z,24.70
2022-08-07T16:30:31.945Z,24.80
2022-08-07T16:34:05.956Z,24.80
2022-08-07T16:36:33.535Z,24.70
2022-08-07T16:40:28.216Z,24.70
2022-08-07T16:44:05.604Z,24.60
2022-08-07T16:47:16.569Z,24.60
2022-08-07T16:50:41.881Z,24.50
2022-08-07T16:54:06.000Z,24.50
2022-08-07T16:58:00.980Z,24.50
2022-08-07T17:00:15.516Z,24.40
2022-08-07T17:03:04.966Z,24.32
2022-08-07T17:06:29.676Z,24.30
2022-08-07T17:09:09.224Z,24.20
2022-08-07T17:12:04.705Z,24.20
2022-08-07T17:15:10.575Z,24.20
2022-08-07T17:17:47.759Z,24.20
2022-08-07T17:20:38.257Z,24.20
2022-08-07T17:23:34.696Z,24.10
2022-08-07T17:26:30.638Z,24.10
2022-08-07T17:30:14.823Z,24.10
2022-08-07T17:32:30.587Z,24.10
2022-08-07T17:35:50.002Z,24.10
2022-08-07T17:38:34.419Z,24.00
2022-08-07T17:42:04.479Z,23.90
2022-08-07T17:44:46.913Z,23.90
2022-08-07T17:47:38.602Z,23.80
2022-08-07T17:50:19.924Z,23.80
2022-08-07T17:54:00.079Z,23.80
2022-08-07T17:56:26.191Z,23.74
2022-08-07T17:59:23.388Z,23.70
2022-08-07T18:02:56.355Z,23.62
2022-08-07T18:06:02.254Z,23.50
2022-08-07T18:09:00.651Z,23.50
2022-08-07T18:12:16.663Z,23.40
2022-08-07T18:14:56.360Z,23.30
2022-08-07T18:18:47.642Z,23.30
2022-08-07T18:21:09.921Z,23.20
2022-08-07T18:24:33.425Z,23.16
2022-08-07T18:27:45.090Z,23.10
2022-08-07T18:30:31.238Z,23.08
2022-08-07T18:33:56.022Z,23.00
2022-08-07T18:36:54.112Z,22.82
2022-08-07T18:40:38.647Z,22.70
2022-08-07T18:44:00.767Z,22.60
2022-08-07T18:46:51.788Z,22.50
2022-08-07T18:50:33.053Z,22.50
2022-08-07T18:52:55.722Z,22.40
2022-08-07T18:56:08.841Z,22.30
2022-08-07T18:59:03.743Z,22.20
2022-08-07T19:02:17.118Z,22.10
2022-08-07T19:05:15.316Z,22.00
2022-08-07T19:08:05.275Z,21.90
2022-08-07T19:10:52.879Z,21.82
2022-08-07T19:14:11.595Z,21.80
2022-08-07T19:17:06.810Z,21.60
2022-08-07T19:20:28.695Z,21.50
2022-08-07T19:23:18.709Z,21.40
2022-08-07T19:26:25.102Z,21.30
2022-08-07T19:30:57.823Z,21.20
2022-08-07T19:32:17.705Z,21.10
2022-08-07T19:34:55.606Z,21.10
2022-08-07T19:37:25.933Z,21.00
2022-08-07T19:40:17.268Z,20.98
2022-08-07T19:43:09.321Z,20.90
2022-08-07T19:46:09.403Z,20.90
2022-08-07T19:48:54.111Z,20.90
2022-08-07T19:51:52.636Z,20.90
2022-08-07T19:54:33.555Z,20.80
2022-08-07T19:58:02.455Z,20.78
2022-08-07T20:00:28.512Z,20.70
2022-08-07T20:03:35.010Z,20.60
2022-08-07T20:06:15.510Z,20.50
2022-08-07T20:09:02.991Z,20.50
2022-08-07T20:12:00.913Z,20.40
2022-08-07T20:14:34.779Z,20.30
2022-08-07T20:17:07.790Z,20.30
2022-08-07T20:19:49.465Z,20.20
2022-08-07T20:22:34.447Z,20.10
2022-08-07T20:25:12.846Z,20.00
2022-08-07T20:27:57.976Z,19.90
2022-08-07T20:30:37.513Z,19.80
2022-08-07T20:33:36.458Z,19.70
2022-08-07T20:36:03.431Z,19.60
2022-08-07T20:38:34.460Z,19.60
2022-08-07T20:41:05.471Z,19.50
2022-08-07T20:43:38.469Z,19.50
2022-08-07T20:46:26.962Z,19.40
2022-08-07T20:49:59.231Z,19.30
2022-08-07T20:51:51.245Z,19.30
2022-08-07T20:54:29.679Z,19.20
2022-08-07T20:57:08.308Z,19.20
2022-08-07T21:00:06.465Z,19.10
2022-08-07T21:02:55.266Z,19.06
2022-08-07T21:05:51.442Z,19.02
2022-08-07T21:08:38.213Z,19.00
2022-08-07T21:11:28.859Z,18.80
2022-08-07T21:14:33.435Z,18.76
2022-08-07T21:18:02.919Z,18.70
2022-08-07T21:20:06.149Z,18.60
2022-08-07T21:22:53.394Z,18.60
2022-08-07T21:26:08.351Z,18.60
2022-08-07T21:29:21.006Z,18.50
2022-08-07T21:32:47.763Z,18.38
2022-08-07T21:35:34.970Z,18.20
2022-08-07T21:38:27.729Z,18.10
2022-08-07T21:41:09.951Z,18.00
2022-08-07T21:44:28.343Z,17.82
2022-08-07T21:47:17.384Z,17.80
2022-08-07T21:50:01.004Z,17.70
2022-08-07T21:53:00.703Z,17.70
2022-08-07T21:55:38.504Z,17.70
2022-08-07T21:58:29.996Z,17.70
2022-08-07T22:01:20.978Z,17.60
2022-08-07T22:04:20.338Z,17.50
2022-08-07T22:07:04.486Z,17.46
2022-08-07T22:09:58.161Z,17.40
2022-08-07T22:12:56.377Z,17.32
2022-08-07T22:16:43.852Z,17.30
2022-08-07T22:19:23.868Z,17.30
2022-08-07T22:22:20.776Z,17.30
2022-08-07T22:25:26.576Z,17.20
2022-08-07T22:28:53.273Z,17.10
2022-08-07T22:32:03.355Z,17.00
2022-08-07T22:35:00.636Z,17.00
2022-08-07T22:38:20.360Z,17.00
2022-08-07T22:41:21.420Z,17.00
2022-08-07T22:44:18.449Z,16.84
2022-08-07T22:47:31.501Z,16.80
2022-08-07T22:50:33.569Z,16.80
2022-08-07T22:54:08.235Z,16.90
2022-08-07T22:56:57.581Z,17.00
2022-08-07T22:59:51.353Z,17.10
2022-08-07T23:02:36.056Z,17.10
2022-08-07T23:06:09.222Z,17.20
2022-08-07T23:10:04.475Z,17.30
2022-08-07T23:12:00.449Z,17.40
2022-08-07T23:14:51.970Z,17.40
2022-08-07T23:17:35.812Z,17.40
2022-08-07T23:20:51.025Z,17.40
2022-08-07T23:24:06.857Z,17.40
2022-08-07T23:27:12.126Z,17.38
2022-08-07T23:30:37.608Z,17.30
2022-08-07T23:34:34.011Z,17.20
2022-08-07T23:36:29.119Z,17.20
2022-08-07T23:39:41.395Z,17.20
2022-08-07T23:42:30.394Z,17.10
2022-08-07T23:46:02.975Z,17.00
2022-08-07T23:49:13.723Z,16.90
2022-08-07T23:53:01.818Z,16.80
2022-08-07T23:54:56.251Z,16.80
2022-08-07T23:57:43.204Z,16.70
